sensor_id;sensor_type;location;lat;lon;timestamp;P1;durP1;ratioP1;P2;durP2;ratioP2
14247;SDS011;7208;49.826;6.004;2023-07-31T00:00:16;1999.90;;;999.90;;
14247;SDS011;7208;49.826;6.004;2023-07-31T00:02:42;1999.90;;;999.90;;
14247;SDS011;7208;49.826;6.004;2023-07-31T00:05:08;1999.90;;;999.90;;
14247;SDS011;7208;49.826;6.004;2023-07-31T00:07:35;1459.10;;;701.07;;
14247;SDS011;7208;49.826;6.004;2023-07-31T00:10:01;1999.90;;;999.90;;
14247;SDS011;7208;49.826;6.004;2023-07-31T00:12:27;1541.93;;;732.37;;
14247;SDS011;7208;49.826;6.004;2023-07-31T00:14:53;1476.07;;;720.27;;
14247;SDS011;7208;49.826;6.004;2023-07-31T00:17:19;1500.43;;;744.73;;
14247;SDS011;7208;49.826;6.004;2023-07-31T00:19:45;650.93;;;277.33;;
14247;SDS011;7208;49.826;6.004;2023-07-31T00:22:14;578.60;;;191.77;;
14247;SDS011;7208;49.826;6.004;2023-07-31T00:24:40;1536.93;;;745.83;;
14247;SDS011;7208;49.826;6.004;2023-07-31T00:27:06;729.83;;;319.50;;
14247;SDS011;7208;49.826;6.004;2023-07-31T00:29:32;640.97;;;281.53;;
14247;SDS011;7208;49.826;6.004;2023-07-31T00:31:58;576.00;;;299.37;;
14247;SDS011;7208;49.826;6.004;2023-07-31T00:34:24;815.23;;;429.13;;
14247;SDS011;7208;49.826;6.004;2023-07-31T00:36:50;582.47;;;369.77;;
14247;SDS011;7208;49.826;6.004;2023-07-31T00:39:16;428.57;;;226.20;;
14247;SDS011;7208;49.826;6.004;2023-07-31T00:41:42;515.00;;;237.27;;
14247;SDS011;7208;49.826;6.004;2023-07-31T00:44:08;1001.93;;;398.93;;
14247;SDS011;7208;49.826;6.004;2023-07-31T00:46:34;883.77;;;418.47;;
14247;SDS011;7208;49.826;6.004;2023-07-31T00:49:00;881.73;;;436.73;;
14247;SDS011;7208;49.826;6.004;2023-07-31T00:51:26;907.53;;;310.33;;
14247;SDS011;7208;49.826;6.004;2023-07-31T00:53:52;758.00;;;356.70;;
14247;SDS011;7208;49.826;6.004;2023-07-31T00:56:19;727.63;;;369.83;;
14247;SDS011;7208;49.826;6.004;2023-07-31T00:58:45;606.33;;;287.70;;
14247;SDS011;7208;49.826;6.004;2023-07-31T01:01:11;1147.30;;;486.57;;
14247;SDS011;7208;49.826;6.004;2023-07-31T01:03:37;951.90;;;436.07;;
14247;SDS011;7208;49.826;6.004;2023-07-31T01:09:03;446.63;;;356.37;;
14247;SDS011;7208;49.826;6.004;2023-07-31T01:11:28;700.13;;;339.30;;
14247;SDS011;7208;49.826;6.004;2023-07-31T01:13:55;1176.07;;;519.93;;
14247;SDS011;7208;49.826;6.004;2023-07-31T01:16:21;119.73;;;106.80;;
14247;SDS011;7208;49.826;6.004;2023-07-31T01:18:47;95.87;;;85.33;;
14247;SDS011;7208;49.826;6.004;2023-07-31T01:23:51;97.03;;;87.90;;
14247;SDS011;7208;49.826;6.004;2023-07-31T01:26:19;91.57;;;83.43;;
14247;SDS011;7208;49.826;6.004;2023-07-31T01:29:01;917.43;;;402.00;;
14247;SDS011;7208;49.826;6.004;2023-07-31T01:31:29;1004.43;;;431.23;;
14247;SDS011;7208;49.826;6.004;2023-07-31T01:33:56;560.80;;;351.77;;
14247;SDS011;7208;49.826;6.004;2023-07-31T01:36:23;691.90;;;295.87;;
14247;SDS011;7208;49.826;6.004;2023-07-31T01:38:49;773.60;;;372.83;;
14247;SDS011;7208;49.826;6.004;2023-07-31T01:41:18;187.10;;;167.60;;
14247;SDS011;7208;49.826;6.004;2023-07-31T01:43:45;100.30;;;90.00;;
14247;SDS011;7208;49.826;6.004;2023-07-31T01:46:11;140.90;;;123.80;;
14247;SDS011;7208;49.826;6.004;2023-07-31T01:48:37;442.57;;;290.70;;
14247;SDS011;7208;49.826;6.004;2023-07-31T01:51:03;575.17;;;513.63;;
14247;SDS011;7208;49.826;6.004;2023-07-31T01:53:30;166.27;;;128.00;;
14247;SDS011;7208;49.826;6.004;2023-07-31T01:55:56;117.47;;;105.77;;
14247;SDS011;7208;49.826;6.004;2023-07-31T01:58:23;1538.37;;;782.77;;
14247;SDS011;7208;49.826;6.004;2023-07-31T02:00:49;1447.80;;;904.73;;
14247;SDS011;7208;49.826;6.004;2023-07-31T02:03:15;564.20;;;317.17;;
14247;SDS011;7208;49.826;6.004;2023-07-31T02:05:47;143.63;;;129.60;;
14247;SDS011;7208;49.826;6.004;2023-07-31T02:08:14;729.23;;;382.03;;
14247;SDS011;7208;49.826;6.004;2023-07-31T02:10:40;892.93;;;490.33;;
14247;SDS011;7208;49.826;6.004;2023-07-31T02:13:06;367.87;;;265.47;;
14247;SDS011;7208;49.826;6.004;2023-07-31T02:15:33;1421.93;;;570.50;;
14247;SDS011;7208;49.826;6.004;2023-07-31T02:17:59;1682.20;;;762.43;;
14247;SDS011;7208;49.826;6.004;2023-07-31T02:20:25;166.83;;;154.33;;
14247;SDS011;7208;49.826;6.004;2023-07-31T02:22:51;251.43;;;221.37;;
14247;SDS011;7208;49.826;6.004;2023-07-31T02:25:17;209.87;;;192.73;;
14247;SDS011;7208;49.826;6.004;2023-07-31T02:27:43;785.47;;;468.77;;
14247;SDS011;7208;49.826;6.004;2023-07-31T02:30:09;645.40;;;381.87;;
14247;SDS011;7208;49.826;6.004;2023-07-31T02:32:35;842.73;;;466.43;;
14247;SDS011;7208;49.826;6.004;2023-07-31T02:35:01;695.27;;;367.00;;
14247;SDS011;7208;49.826;6.004;2023-07-31T02:37:27;218.70;;;196.10;;
14247;SDS011;7208;49.826;6.004;2023-07-31T02:39:54;755.07;;;434.63;;
14247;SDS011;7208;49.826;6.004;2023-07-31T02:42:20;352.60;;;323.27;;
14247;SDS011;7208;49.826;6.004;2023-07-31T02:44:46;106.97;;;85.60;;
14247;SDS011;7208;49.826;6.004;2023-07-31T02:47:12;564.23;;;338.10;;
14247;SDS011;7208;49.826;6.004;2023-07-31T02:49:38;351.67;;;320.90;;
14247;SDS011;7208;49.826;6.004;2023-07-31T02:52:04;103.07;;;93.83;;
14247;SDS011;7208;49.826;6.004;2023-07-31T02:54:30;101.83;;;93.20;;
14247;SDS011;7208;49.826;6.004;2023-07-31T02:56:56;257.13;;;233.47;;
14247;SDS011;7208;49.826;6.004;2023-07-31T02:59:22;673.77;;;448.60;;
14247;SDS011;7208;49.826;6.004;2023-07-31T03:01:50;1147.10;;;563.37;;
14247;SDS011;7208;49.826;6.004;2023-07-31T03:04:16;261.07;;;237.07;;
14247;SDS011;7208;49.826;6.004;2023-07-31T03:06:42;102.00;;;91.10;;
14247;SDS011;7208;49.826;6.004;2023-07-31T03:09:08;113.50;;;103.77;;
14247;SDS011;7208;49.826;6.004;2023-07-31T03:11:34;326.67;;;298.00;;
14247;SDS011;7208;49.826;6.004;2023-07-31T03:14:00;1533.03;;;756.87;;
14247;SDS011;7208;49.826;6.004;2023-07-31T03:16:26;428.33;;;386.20;;
14247;SDS011;7208;49.826;6.004;2023-07-31T03:18:52;138.03;;;115.70;;
14247;SDS011;7208;49.826;6.004;2023-07-31T03:21:18;763.77;;;485.13;;
14247;SDS011;7208;49.826;6.004;2023-07-31T03:23:44;824.90;;;411.90;;
14247;SDS011;7208;49.826;6.004;2023-07-31T03:26:10;553.00;;;323.17;;
14247;SDS011;7208;49.826;6.004;2023-07-31T03:28:36;706.97;;;348.37;;
14247;SDS011;7208;49.826;6.004;2023-07-31T03:31:02;90.17;;;81.77;;
14247;SDS011;7208;49.826;6.004;2023-07-31T03:33:28;1419.87;;;742.47;;
14247;SDS011;7208;49.826;6.004;2023-07-31T03:35:54;103.10;;;94.00;;
14247;SDS011;7208;49.826;6.004;2023-07-31T03:38:20;162.40;;;129.70;;
14247;SDS011;7208;49.826;6.004;2023-07-31T03:40:46;73.70;;;70.83;;
14247;SDS011;7208;49.826;6.004;2023-07-31T03:43:12;104.60;;;93.30;;
14247;SDS011;7208;49.826;6.004;2023-07-31T03:45:38;91.50;;;77.50;;
14247;SDS011;7208;49.826;6.004;2023-07-31T03:48:04;110.40;;;95.80;;
14247;SDS011;7208;49.826;6.004;2023-07-31T03:50:30;621.37;;;303.63;;
14247;SDS011;7208;49.826;6.004;2023-07-31T03:52:56;286.60;;;261.63;;
14247;SDS011;7208;49.826;6.004;2023-07-31T03:55:22;850.63;;;377.30;;
14247;SDS011;7208;49.826;6.004;2023-07-31T03:57:48;1219.13;;;476.27;;
14247;SDS011;7208;49.826;6.004;2023-07-31T04:00:14;1128.97;;;450.33;;
14247;SDS011;7208;49.826;6.004;2023-07-31T04:02:43;413.80;;;175.27;;
14247;SDS011;7208;49.826;6.004;2023-07-31T04:05:09;645.57;;;306.40;;
14247;SDS011;7208;49.826;6.004;2023-07-31T04:07:35;1523.33;;;739.10;;
14247;SDS011;7208;49.826;6.004;2023-07-31T04:10:01;739.17;;;330.27;;
14247;SDS011;7208;49.826;6.004;2023-07-31T04:12:28;765.13;;;284.63;;
14247;SDS011;7208;49.826;6.004;2023-07-31T04:14:54;249.80;;;239.75;;
14247;SDS011;7208;49.826;6.004;2023-07-31T04:17:20;341.17;;;299.97;;
14247;SDS011;7208;49.826;6.004;2023-07-31T04:19:46;1123.20;;;591.23;;
14247;SDS011;7208;49.826;6.004;2023-07-31T04:22:12;1628.47;;;964.33;;
14247;SDS011;7208;49.826;6.004;2023-07-31T04:24:38;576.63;;;269.23;;
14247;SDS011;7208;49.826;6.004;2023-07-31T04:27:04;1523.37;;;726.20;;
14247;SDS011;7208;49.826;6.004;2023-07-31T04:29:30;1492.30;;;744.63;;
14247;SDS011;7208;49.826;6.004;2023-07-31T04:31:56;1999.90;;;999.90;;
14247;SDS011;7208;49.826;6.004;2023-07-31T04:34:22;1999.90;;;999.90;;
14247;SDS011;7208;49.826;6.004;2023-07-31T04:36:48;1999.90;;;999.90;;
14247;SDS011;7208;49.826;6.004;2023-07-31T04:39:14;1469.27;;;708.17;;
14247;SDS011;7208;49.826;6.004;2023-07-31T04:41:40;1566.90;;;735.67;;
14247;SDS011;7208;49.826;6.004;2023-07-31T04:44:06;1999.90;;;999.90;;
14247;SDS011;7208;49.826;6.004;2023-07-31T04:46:32;1477.87;;;702.00;;
14247;SDS011;7208;49.826;6.004;2023-07-31T04:48:58;1749.00;;;999.90;;
14247;SDS011;7208;49.826;6.004;2023-07-31T04:51:24;1461.57;;;714.47;;
14247;SDS011;7208;49.826;6.004;2023-07-31T04:53:50;1999.90;;;999.90;;
14247;SDS011;7208;49.826;6.004;2023-07-31T04:56:16;1999.90;;;830.57;;
14247;SDS011;7208;49.826;6.004;2023-07-31T04:58:42;1605.20;;;764.33;;
14247;SDS011;7208;49.826;6.004;2023-07-31T05:01:08;1639.60;;;767.30;;
14247;SDS011;7208;49.826;6.004;2023-07-31T05:03:34;1675.00;;;790.40;;
14247;SDS011;7208;49.826;6.004;2023-07-31T05:06:00;291.47;;;66.67;;
14247;SDS011;7208;49.826;6.004;2023-07-31T05:08:26;454.83;;;146.20;;
14247;SDS011;7208;49.826;6.004;2023-07-31T05:10:52;1598.90;;;757.73;;
14247;SDS011;7208;49.826;6.004;2023-07-31T05:13:18;1576.43;;;736.47;;
14247;SDS011;7208;49.826;6.004;2023-07-31T05:15:45;799.00;;;357.13;;
14247;SDS011;7208;49.826;6.004;2023-07-31T05:18:11;1492.57;;;732.90;;
14247;SDS011;7208;49.826;6.004;2023-07-31T05:20:37;1011.30;;;360.47;;
14247;SDS011;7208;49.826;6.004;2023-07-31T05:23:03;1559.90;;;759.63;;
14247;SDS011;7208;49.826;6.004;2023-07-31T05:25:29;1490.40;;;715.10;;
14247;SDS011;7208;49.826;6.004;2023-07-31T05:27:55;962.27;;;371.40;;
14247;SDS011;7208;49.826;6.004;2023-07-31T05:30:20;1999.90;;;911.83;;
14247;SDS011;7208;49.826;6.004;2023-07-31T05:32:46;1566.60;;;757.97;;
14247;SDS011;7208;49.826;6.004;2023-07-31T05:35:12;1999.90;;;999.90;;
14247;SDS011;7208;49.826;6.004;2023-07-31T05:37:38;1402.17;;;543.03;;
14247;SDS011;7208;49.826;6.004;2023-07-31T05:40:05;1592.37;;;644.40;;
14247;SDS011;7208;49.826;6.004;2023-07-31T05:42:31;717.93;;;269.37;;
14247;SDS011;7208;49.826;6.004;2023-07-31T05:44:57;1517.57;;;711.23;;
14247;SDS011;7208;49.826;6.004;2023-07-31T05:47:23;1643.63;;;774.20;;
14247;SDS011;7208;49.826;6.004;2023-07-31T05:49:49;1034.87;;;429.40;;
14247;SDS011;7208;49.826;6.004;2023-07-31T05:52:17;1095.77;;;320.37;;
14247;SDS011;7208;49.826;6.004;2023-07-31T05:54:43;1608.07;;;769.70;;
14247;SDS011;7208;49.826;6.004;2023-07-31T05:57:11;1944.63;;;594.10;;
14247;SDS011;7208;49.826;6.004;2023-07-31T05:59:37;1609.53;;;747.43;;
14247;SDS011;7208;49.826;6.004;2023-07-31T06:02:03;1999.90;;;999.90;;
14247;SDS011;7208;49.826;6.004;2023-07-31T06:04:29;1999.90;;;999.90;;
14247;SDS011;7208;49.826;6.004;2023-07-31T06:06:56;1999.90;;;999.90;;
14247;SDS011;7208;49.826;6.004;2023-07-31T06:09:22;1999.90;;;999.90;;
14247;SDS011;7208;49.826;6.004;2023-07-31T06:11:48;1999.90;;;999.90;;
14247;SDS011;7208;49.826;6.004;2023-07-31T06:14:14;1999.90;;;999.90;;
14247;SDS011;7208;49.826;6.004;2023-07-31T06:16:40;1999.90;;;999.90;;
14247;SDS011;7208;49.826;6.004;2023-07-31T06:19:06;1999.90;;;999.90;;
14247;SDS011;7208;49.826;6.004;2023-07-31T06:21:32;1999.90;;;999.90;;
14247;SDS011;7208;49.826;6.004;2023-07-31T06:23:58;1999.90;;;999.90;;
14247;SDS011;7208;49.826;6.004;2023-07-31T06:26:24;1999.90;;;999.90;;
14247;SDS011;7208;49.826;6.004;2023-07-31T06:28:50;811.97;;;368.17;;
14247;SDS011;7208;49.826;6.004;2023-07-31T06:31:16;1999.90;;;999.90;;
14247;SDS011;7208;49.826;6.004;2023-07-31T06:33:45;1999.90;;;999.90;;
14247;SDS011;7208;49.826;6.004;2023-07-31T06:36:11;1927.53;;;532.37;;
14247;SDS011;7208;49.826;6.004;2023-07-31T06:38:37;1999.90;;;999.90;;
14247;SDS011;7208;49.826;6.004;2023-07-31T06:41:03;1494.07;;;498.93;;
14247;SDS011;7208;49.826;6.004;2023-07-31T06:43:29;1999.90;;;999.90;;
14247;SDS011;7208;49.826;6.004;2023-07-31T06:45:55;1918.47;;;644.93;;
14247;SDS011;7208;49.826;6.004;2023-07-31T06:48:21;1999.90;;;999.90;;
14247;SDS011;7208;49.826;6.004;2023-07-31T06:50:47;1999.90;;;999.90;;
14247;SDS011;7208;49.826;6.004;2023-07-31T06:53:13;1999.90;;;999.90;;
14247;SDS011;7208;49.826;6.004;2023-07-31T06:55:39;1999.90;;;999.90;;
14247;SDS011;7208;49.826;6.004;2023-07-31T06:58:05;1999.90;;;999.90;;
14247;SDS011;7208;49.826;6.004;2023-07-31T07:00:31;1429.03;;;502.03;;
14247;SDS011;7208;49.826;6.004;2023-07-31T07:02:57;1999.90;;;999.90;;
14247;SDS011;7208;49.826;6.004;2023-07-31T07:05:23;1601.70;;;619.33;;
14247;SDS011;7208;49.826;6.004;2023-07-31T07:07:49;1999.90;;;999.90;;
14247;SDS011;7208;49.826;6.004;2023-07-31T07:10:19;1999.90;;;999.90;;
14247;SDS011;7208;49.826;6.004;2023-07-31T07:12:45;1055.67;;;367.77;;
14247;SDS011;7208;49.826;6.004;2023-07-31T07:15:11;945.50;;;415.03;;
14247;SDS011;7208;49.826;6.004;2023-07-31T07:17:37;1532.50;;;719.50;;
14247;SDS011;7208;49.826;6.004;2023-07-31T07:20:03;1962.00;;;876.23;;
14247;SDS011;7208;49.826;6.004;2023-07-31T07:22:30;332.27;;;286.33;;
14247;SDS011;7208;49.826;6.004;2023-07-31T07:24:56;921.53;;;643.90;;
14247;SDS011;7208;49.826;6.004;2023-07-31T07:27:22;788.60;;;481.33;;
14247;SDS011;7208;49.826;6.004;2023-07-31T07:29:49;905.67;;;465.93;;
14247;SDS011;7208;49.826;6.004;2023-07-31T07:32:16;900.07;;;496.83;;
14247;SDS011;7208;49.826;6.004;2023-07-31T07:34:43;1353.87;;;465.23;;
14247;SDS011;7208;49.826;6.004;2023-07-31T07:37:09;440.37;;;392.73;;
14247;SDS011;7208;49.826;6.004;2023-07-31T07:39:35;1628.20;;;642.87;;
14247;SDS011;7208;49.826;6.004;2023-07-31T07:42:01;392.50;;;374.50;;
14247;SDS011;7208;49.826;6.004;2023-07-31T07:44:27;271.10;;;261.00;;
14247;SDS011;7208;49.826;6.004;2023-07-31T07:46:53;323.47;;;309.57;;
14247;SDS011;7208;49.826;6.004;2023-07-31T07:49:19;279.20;;;268.47;;
14247;SDS011;7208;49.826;6.004;2023-07-31T07:51:47;323.77;;;311.37;;
14247;SDS011;7208;49.826;6.004;2023-07-31T07:54:13;399.50;;;380.33;;
14247;SDS011;7208;49.826;6.004;2023-07-31T07:56:39;438.73;;;418.47;;
14247;SDS011;7208;49.826;6.004;2023-07-31T07:59:06;379.33;;;364.33;;
14247;SDS011;7208;49.826;6.004;2023-07-31T08:01:32;380.17;;;365.30;;
14247;SDS011;7208;49.826;6.004;2023-07-31T08:03:58;352.53;;;338.53;;
14247;SDS011;7208;49.826;6.004;2023-07-31T08:06:24;441.77;;;418.77;;
14247;SDS011;7208;49.826;6.004;2023-07-31T08:08:50;381.40;;;365.30;;
14247;SDS011;7208;49.826;6.004;2023-07-31T08:11:16;345.83;;;332.47;;
14247;SDS011;7208;49.826;6.004;2023-07-31T08:13:42;381.20;;;366.43;;
14247;SDS011;7208;49.826;6.004;2023-07-31T08:16:08;358.57;;;344.07;;
14247;SDS011;7208;49.826;6.004;2023-07-31T08:18:35;365.17;;;350.50;;
14247;SDS011;7208;49.826;6.004;2023-07-31T08:21:01;375.40;;;360.73;;
14247;SDS011;7208;49.826;6.004;2023-07-31T08:23:28;350.83;;;337.67;;
14247;SDS011;7208;49.826;6.004;2023-07-31T08:25:54;354.07;;;340.57;;
14247;SDS011;7208;49.826;6.004;2023-07-31T08:28:20;341.83;;;328.80;;
14247;SDS011;7208;49.826;6.004;2023-07-31T08:30:46;404.37;;;382.93;;
14247;SDS011;7208;49.826;6.004;2023-07-31T08:33:12;360.10;;;346.07;;
14247;SDS011;7208;49.826;6.004;2023-07-31T08:35:38;385.40;;;367.30;;
14247;SDS011;7208;49.826;6.004;2023-07-31T08:38:04;328.53;;;315.80;;
14247;SDS011;7208;49.826;6.004;2023-07-31T08:40:30;352.83;;;339.53;;
14247;SDS011;7208;49.826;6.004;2023-07-31T08:42:56;328.97;;;316.07;;
14247;SDS011;7208;49.826;6.004;2023-07-31T08:45:26;356.43;;;342.97;;
14247;SDS011;7208;49.826;6.004;2023-07-31T08:47:53;462.20;;;442.03;;
14247;SDS011;7208;49.826;6.004;2023-07-31T08:50:20;369.77;;;354.67;;
14247;SDS011;7208;49.826;6.004;2023-07-31T08:52:47;426.13;;;405.03;;
14247;SDS011;7208;49.826;6.004;2023-07-31T08:55:13;364.03;;;349.40;;
14247;SDS011;7208;49.826;6.004;2023-07-31T08:57:39;414.33;;;389.50;;
14247;SDS011;7208;49.826;6.004;2023-07-31T09:00:07;361.60;;;347.90;;
14247;SDS011;7208;49.826;6.004;2023-07-31T09:03:18;374.40;;;359.90;;
14247;SDS011;7208;49.826;6.004;2023-07-31T09:05:19;416.73;;;400.00;;
14247;SDS011;7208;49.826;6.004;2023-07-31T09:07:47;384.20;;;369.13;;
14247;SDS011;7208;49.826;6.004;2023-07-31T09:10:13;301.90;;;288.83;;
14247;SDS011;7208;49.826;6.004;2023-07-31T09:12:39;379.77;;;364.93;;
14247;SDS011;7208;49.826;6.004;2023-07-31T09:15:05;379.53;;;364.80;;
14247;SDS011;7208;49.826;6.004;2023-07-31T09:17:32;374.70;;;360.10;;
14247;SDS011;7208;49.826;6.004;2023-07-31T09:20:12;412.17;;;395.77;;
14247;SDS011;7208;49.826;6.004;2023-07-31T09:22:38;407.17;;;390.83;;
14247;SDS011;7208;49.826;6.004;2023-07-31T09:25:15;390.27;;;375.07;;
14247;SDS011;7208;49.826;6.004;2023-07-31T09:30:14;410.00;;;393.73;;
14247;SDS011;7208;49.826;6.004;2023-07-31T09:32:40;448.27;;;422.97;;
14247;SDS011;7208;49.826;6.004;2023-07-31T09:35:13;461.53;;;441.83;;
14247;SDS011;7208;49.826;6.004;2023-07-31T09:37:39;387.17;;;372.00;;
14247;SDS011;7208;49.826;6.004;2023-07-31T09:40:05;432.27;;;414.83;;
14247;SDS011;7208;49.826;6.004;2023-07-31T09:42:31;391.70;;;376.10;;
14247;SDS011;7208;49.826;6.004;2023-07-31T09:45:09;430.13;;;408.83;;
14247;SDS011;7208;49.826;6.004;2023-07-31T09:47:35;459.83;;;437.73;;
14247;SDS011;7208;49.826;6.004;2023-07-31T09:50:01;409.37;;;391.27;;
14247;SDS011;7208;49.826;6.004;2023-07-31T09:52:33;358.70;;;344.90;;
14247;SDS011;7208;49.826;6.004;2023-07-31T09:54:59;402.40;;;377.10;;
14247;SDS011;7208;49.826;6.004;2023-07-31T09:57:25;389.83;;;370.70;;
14247;SDS011;7208;49.826;6.004;2023-07-31T09:59:52;568.47;;;510.10;;
14247;SDS011;7208;49.826;6.004;2023-07-31T10:02:21;605.80;;;437.90;;
14247;SDS011;7208;49.826;6.004;2023-07-31T10:04:51;436.00;;;379.90;;
14247;SDS011;7208;49.826;6.004;2023-07-31T10:07:17;300.57;;;283.33;;
14247;SDS011;7208;49.826;6.004;2023-07-31T10:09:44;794.13;;;474.33;;
14247;SDS011;7208;49.826;6.004;2023-07-31T10:12:11;985.27;;;559.17;;
14247;SDS011;7208;49.826;6.004;2023-07-31T10:14:38;543.50;;;455.43;;
14247;SDS011;7208;49.826;6.004;2023-07-31T10:17:04;445.10;;;414.90;;
14247;SDS011;7208;49.826;6.004;2023-07-31T10:19:31;1063.90;;;663.67;;
14247;SDS011;7208;49.826;6.004;2023-07-31T10:21:57;1178.20;;;623.43;;
14247;SDS011;7208;49.826;6.004;2023-07-31T10:24:23;465.90;;;426.00;;
14247;SDS011;7208;49.826;6.004;2023-07-31T10:26:50;415.10;;;391.53;;
14247;SDS011;7208;49.826;6.004;2023-07-31T10:29:17;384.23;;;369.27;;
14247;SDS011;7208;49.826;6.004;2023-07-31T10:31:44;397.47;;;377.23;;
14247;SDS011;7208;49.826;6.004;2023-07-31T10:34:11;477.90;;;453.70;;
14247;SDS011;7208;49.826;6.004;2023-07-31T10:36:37;410.40;;;393.60;;
14247;SDS011;7208;49.826;6.004;2023-07-31T10:39:04;401.77;;;379.30;;
14247;SDS011;7208;49.826;6.004;2023-07-31T10:41:30;371.03;;;355.63;;
14247;SDS011;7208;49.826;6.004;2023-07-31T10:44:00;589.80;;;502.47;;
14247;SDS011;7208;49.826;6.004;2023-07-31T10:46:27;439.77;;;416.10;;
14247;SDS011;7208;49.826;6.004;2023-07-31T10:49:01;539.07;;;480.30;;
14247;SDS011;7208;49.826;6.004;2023-07-31T10:51:34;1327.33;;;659.53;;
14247;SDS011;7208;49.826;6.004;2023-07-31T10:54:15;1941.57;;;848.43;;
14247;SDS011;7208;49.826;6.004;2023-07-31T10:56:45;1074.27;;;566.97;;
14247;SDS011;7208;49.826;6.004;2023-07-31T10:59:12;1084.20;;;524.23;;
14247;SDS011;7208;49.826;6.004;2023-07-31T11:01:51;1999.90;;;999.90;;
14247;SDS011;7208;49.826;6.004;2023-07-31T11:04:24;786.60;;;368.90;;
14247;SDS011;7208;49.826;6.004;2023-07-31T11:06:58;1396.67;;;335.63;;
14247;SDS011;7208;49.826;6.004;2023-07-31T11:09:26;1751.23;;;798.70;;
14247;SDS011;7208;49.826;6.004;2023-07-31T11:11:54;918.23;;;478.40;;
14247;SDS011;7208;49.826;6.004;2023-07-31T11:14:20;1014.57;;;498.47;;
14247;SDS011;7208;49.826;6.004;2023-07-31T11:16:46;1904.87;;;729.37;;
14247;SDS011;7208;49.826;6.004;2023-07-31T11:19:18;1999.90;;;999.90;;
14247;SDS011;7208;49.826;6.004;2023-07-31T11:21:46;1237.63;;;583.60;;
14247;SDS011;7208;49.826;6.004;2023-07-31T11:24:13;473.37;;;255.83;;
14247;SDS011;7208;49.826;6.004;2023-07-31T11:26:47;1999.90;;;999.90;;
14247;SDS011;7208;49.826;6.004;2023-07-31T11:29:13;1110.47;;;543.03;;
14247;SDS011;7208;49.826;6.004;2023-07-31T11:31:42;1106.73;;;449.97;;
14247;SDS011;7208;49.826;6.004;2023-07-31T11:34:08;1751.57;;;746.50;;
14247;SDS011;7208;49.826;6.004;2023-07-31T11:36:34;374.20;;;176.43;;
14247;SDS011;7208;49.826;6.004;2023-07-31T11:39:04;1999.90;;;999.90;;
14247;SDS011;7208;49.826;6.004;2023-07-31T11:41:31;1728.97;;;772.80;;
14247;SDS011;7208;49.826;6.004;2023-07-31T11:44:00;1506.33;;;584.50;;
14247;SDS011;7208;49.826;6.004;2023-07-31T11:46:27;1055.10;;;477.27;;
14247;SDS011;7208;49.826;6.004;2023-07-31T11:48:55;1999.90;;;999.90;;
14247;SDS011;7208;49.826;6.004;2023-07-31T11:51:24;1040.43;;;264.27;;
14247;SDS011;7208;49.826;6.004;2023-07-31T11:53:52;1539.40;;;718.00;;
14247;SDS011;7208;49.826;6.004;2023-07-31T11:56:19;1486.53;;;712.60;;
14247;SDS011;7208;49.826;6.004;2023-07-31T11:58:47;1576.87;;;737.90;;
14247;SDS011;7208;49.826;6.004;2023-07-31T12:01:18;744.10;;;164.17;;
14247;SDS011;7208;49.826;6.004;2023-07-31T12:03:45;472.80;;;379.87;;
14247;SDS011;7208;49.826;6.004;2023-07-31T12:06:11;535.60;;;309.93;;
14247;SDS011;7208;49.826;6.004;2023-07-31T12:08:37;301.37;;;251.00;;
14247;SDS011;7208;49.826;6.004;2023-07-31T12:11:04;991.40;;;360.07;;
14247;SDS011;7208;49.826;6.004;2023-07-31T12:13:30;1120.03;;;550.73;;
14247;SDS011;7208;49.826;6.004;2023-07-31T12:15:59;584.07;;;358.47;;
14247;SDS011;7208;49.826;6.004;2023-07-31T12:18:27;1885.83;;;867.87;;
14247;SDS011;7208;49.826;6.004;2023-07-31T12:20:54;1046.87;;;522.10;;
14247;SDS011;7208;49.826;6.004;2023-07-31T12:23:21;1731.70;;;685.07;;
14247;SDS011;7208;49.826;6.004;2023-07-31T12:26:09;901.47;;;457.83;;
14247;SDS011;7208;49.826;6.004;2023-07-31T12:28:40;1125.20;;;594.77;;
14247;SDS011;7208;49.826;6.004;2023-07-31T12:31:08;1292.27;;;648.00;;
14247;SDS011;7208;49.826;6.004;2023-07-31T12:33:35;1439.97;;;543.63;;
14247;SDS011;7208;49.826;6.004;2023-07-31T12:36:02;1088.77;;;436.70;;
14247;SDS011;7208;49.826;6.004;2023-07-31T12:38:29;1676.37;;;732.73;;
14247;SDS011;7208;49.826;6.004;2023-07-31T12:40:55;1999.90;;;687.23;;
14247;SDS011;7208;49.826;6.004;2023-07-31T12:43:21;1403.00;;;647.67;;
14247;SDS011;7208;49.826;6.004;2023-07-31T12:45:47;1453.03;;;552.97;;
14247;SDS011;7208;49.826;6.004;2023-07-31T12:48:13;1414.93;;;306.97;;
14247;SDS011;7208;49.826;6.004;2023-07-31T12:50:39;1999.90;;;638.73;;
14247;SDS011;7208;49.826;6.004;2023-07-31T12:53:05;1602.47;;;728.97;;
14247;SDS011;7208;49.826;6.004;2023-07-31T12:55:32;1509.37;;;710.13;;
14247;SDS011;7208;49.826;6.004;2023-07-31T12:57:59;1964.37;;;763.10;;
14247;SDS011;7208;49.826;6.004;2023-07-31T13:00:25;671.90;;;306.63;;
14247;SDS011;7208;49.826;6.004;2023-07-31T13:02:52;1762.27;;;406.27;;
14247;SDS011;7208;49.826;6.004;2023-07-31T13:05:18;1639.97;;;741.57;;
14247;SDS011;7208;49.826;6.004;2023-07-31T13:07:47;1999.90;;;999.90;;
14247;SDS011;7208;49.826;6.004;2023-07-31T13:10:13;917.40;;;206.20;;
14247;SDS011;7208;49.826;6.004;2023-07-31T13:12:40;1999.90;;;999.90;;
14247;SDS011;7208;49.826;6.004;2023-07-31T13:15:06;1999.90;;;999.90;;
14247;SDS011;7208;49.826;6.004;2023-07-31T13:17:32;1999.90;;;999.90;;
14247;SDS011;7208;49.826;6.004;2023-07-31T13:19:58;1600.10;;;724.53;;
14247;SDS011;7208;49.826;6.004;2023-07-31T13:22:25;1999.90;;;999.90;;
14247;SDS011;7208;49.826;6.004;2023-07-31T13:24:51;1999.90;;;999.90;;
14247;SDS011;7208;49.826;6.004;2023-07-31T13:27:17;1753.27;;;764.63;;
14247;SDS011;7208;49.826;6.004;2023-07-31T13:29:45;1595.70;;;731.67;;
14247;SDS011;7208;49.826;6.004;2023-07-31T13:32:11;1716.97;;;755.93;;
14247;SDS011;7208;49.826;6.004;2023-07-31T13:34:37;963.33;;;212.23;;
14247;SDS011;7208;49.826;6.004;2023-07-31T13:37:04;1556.60;;;722.17;;
14247;SDS011;7208;49.826;6.004;2023-07-31T13:39:31;549.00;;;110.90;;
14247;SDS011;7208;49.826;6.004;2023-07-31T13:41:58;1999.90;;;999.90;;
14247;SDS011;7208;49.826;6.004;2023-07-31T13:44:24;1540.57;;;709.27;;
14247;SDS011;7208;49.826;6.004;2023-07-31T13:46:50;1999.90;;;999.90;;
14247;SDS011;7208;49.826;6.004;2023-07-31T13:49:16;1580.80;;;764.63;;
14247;SDS011;7208;49.826;6.004;2023-07-31T13:51:42;585.83;;;275.27;;
14247;SDS011;7208;49.826;6.004;2023-07-31T13:54:08;611.67;;;248.87;;
14247;SDS011;7208;49.826;6.004;2023-07-31T13:56:36;1593.23;;;525.63;;
14247;SDS011;7208;49.826;6.004;2023-07-31T13:59:02;1156.40;;;452.27;;
14247;SDS011;7208;49.826;6.004;2023-07-31T14:01:28;430.50;;;175.00;;
14247;SDS011;7208;49.826;6.004;2023-07-31T14:03:54;259.83;;;210.40;;
14247;SDS011;7208;49.826;6.004;2023-07-31T14:06:20;435.57;;;276.77;;
14247;SDS011;7208;49.826;6.004;2023-07-31T14:08:46;90.33;;;53.97;;